Nearby METAR Reports

 

KSEE - San Diego/Santee, California, USA
Distance from station: E 4mi, 6km
Updated: 10/18/2018 10:15pm
Clear
Clear
 Wind from calm
Wind: Calm
Temperature: 64°F , 18°C
Dew Point: 39°F , 4°C
Humidity: 40%
Barometer: 30.02 inHg , 1016.6 hPa
Clouds: Clear
Visibility: 10 miles , 16 km
2018/10/19 05:15 KSEE 190515Z AUTO 00000KT 10SM CLR 18/04 A3002 RMK AO2
KMYF - San Diego/Mntgmy, California, USA
Distance from station: W 6mi, 10km
Updated: 10/18/2018 9:53pm
Clear
Clear
 Wind from N
Wind: N 8 mph , 13 km/h
Temperature: 70°F , 21°C
Dew Point: 41°F , 5°C
Humidity: 35%
Barometer: 30.02 inHg , 1016.6 hPa
Clouds: Clear
Visibility: 10 miles , 16 km
2018/10/19 04:53 KMYF 190453Z 35007KT 10SM CLR 21/05 A3002 RMK AO2 SLP162 T02060050
 
KNKX - Miramar Nas/San, California, USA
Distance from station: WNW 7mi, 11km
Updated: 10/18/2018 9:55pm
Clear
Clear
 Wind from NNW
Wind: NNW 8 mph , 13 km/h
Temperature: 72°F , 22°C
Dew Point: 41°F , 5°C
Humidity: 33%
Barometer: 30.02 inHg , 1016.6 hPa
Clouds: Clear
Visibility: 10 miles , 16 km
2018/10/19 04:55 KNKX 190455Z 34007KT 10SM CLR 22/05 A3002 RMK AO2 SLP159 T02170050
KSAN - San Diego, California, USA
Distance from station: WSW 11mi, 17km
Updated: 10/18/2018 9:51pm
Clear
Clear
 Wind from NNW
Wind: NNW 6 mph , 9 km/h
Temperature: 72°F , 22°C
Dew Point: 43°F , 6°C
Humidity: 36%
Barometer: 30.02 inHg , 1016.6 hPa
Clouds: Clear
Visibility: 10 miles , 16 km
2018/10/19 04:51 KSAN 190451Z 34005KT 10SM CLR 22/06 A3002 RMK AO2 SLP166 T02220061
 
KNZY - North Island Nas, California, USA
Distance from station: SW 13mi, 22km
Updated: 10/18/2018 9:52pm
Clear
Clear
 Wind from calm
Wind: Calm
Temperature: 66°F , 19°C
Dew Point: 52°F , 11°C
Humidity: 60%
Barometer: 30.00 inHg , 1015.9 hPa
Clouds: Clear
Visibility: 10 miles , 16 km
2018/10/19 04:52 KNZY 190452Z 00000KT 10SM CLR 19/11 A3000 RMK AO2 SLP160 T01940106 PNO $
KRNM - Ramona, California, USA
Distance from station: NNE 16mi, 26km
Updated: 10/18/2018 9:53pm
Clear
Clear
 Wind from calm
Wind: Calm
Temperature: 54°F , 12°C
Dew Point: 37°F , 3°C
Humidity: 54%
Barometer: 30.06 inHg , 1017.9 hPa
Clouds: Clear
Visibility: 10 miles , 16 km
2018/10/19 04:53 KRNM 190453Z AUTO 00000KT 10SM CLR 12/03 A3006 RMK AO2 SLP167 T01220033
 
KSDM - San Diego/Brown, California, USA
Distance from station: S 16mi, 26km
Updated: 10/18/2018 9:53pm
Clear
Clear
 Wind from calm
Wind: Calm
Temperature: 63°F , 17°C
Dew Point: 50°F , 10°C
Humidity: 64%
Barometer: 30.02 inHg , 1016.6 hPa
Clouds: Clear
Visibility: 9 miles , 14 km
2018/10/19 04:53 KSDM 190453Z AUTO 00000KT 9SM CLR 17/10 A3002 RMK AO2 SLP162 T01720100
KNRS - Imperial Beach, California, USA
Distance from station: SSW 18mi, 29km
Updated: 10/18/2018 9:56pm
Clear
Clear
 Wind from calm
Wind: Calm
Temperature: 59°F , 15°C
Dew Point: 50°F , 10°C
Humidity: 72%
Barometer: 30.02 inHg , 1016.6 hPa
Clouds: Clear
Visibility: 10 miles , 16 km
2018/10/19 04:56 KNRS 190456Z 00000KT 10SM CLR 15/10 A3002 RMK AO2 SLP165 T01500100 $
 
MMTJ - Tijuana Intl Arp, Mexico
Distance from station: S 20mi, 32km
Updated: 10/18/2018 9:44pm
Clear
Clear
 Wind from calm
Wind: Calm
Temperature: 64°F , 18°C
Dew Point: 48°F , 9°C
Humidity: 56%
Barometer: 30.05 inHg , 1017.6 hPa
Clouds: Clear
Visibility: 7 miles , 11 km
2018/10/19 04:44 MMTJ 190444Z 00000KT 7SM SKC 18/09 A3005
KCRQ - Carlsbad, California, USA
Distance from station: NW 26mi, 43km
Updated: 10/18/2018 9:53pm
Clear
Clear
 Wind from calm
Wind: Calm
Temperature: 64°F , 18°C
Dew Point: 46°F , 8°C
Humidity: 52%
Barometer: 30.01 inHg , 1016.3 hPa
Clouds: Clear
Visibility: 10 miles , 16 km
2018/10/19 04:53 KCRQ 190453Z AUTO 00000KT 10SM CLR 18/08 A3001 RMK AO2 SLP160 T01830078
 
KOKB - Oceanside, California, USA
Distance from station: NW 33mi, 54km
Updated: 10/18/2018 9:52pm
Clear
Clear
 Wind from calm
Wind: Calm
Temperature: 57°F , 14°C
Dew Point: 48°F , 9°C
Humidity: 72%
Barometer: 30.01 inHg , 1016.3 hPa
Clouds: Clear
Visibility: 10 miles , 16 km
2018/10/19 04:52 KOKB 190452Z AUTO 00000KT 10SM CLR 14/09 A3001 RMK AO2 SLP163 T01440089
KCZZ - Campo, California, USA
Distance from station: ESE 35mi, 56km
Updated: 10/18/2018 9:52pm

 Wind from NE
Wind: NE 6 mph , 9 km/h
Temperature: 50°F , 10°C
Wind Chill: 48°F , 9°C
Dew Point: 28°F , -2°C
Humidity: 43%
Barometer: 30.06 inHg , 1017.9 hPa
2018/10/19 04:52 KCZZ 190452Z AUTO 04005KT 10/M02 A3006 RMK AO1 SLP157 T01001017
 
KNFG - Camp Pendleton, California, USA
Distance from station: NNW 37mi, 59km
Updated: 10/18/2018 9:55pm
Clear
Clear
 Wind from NE
Wind: NE 3 mph , 6 km/h
Temperature: 61°F , 16°C
Dew Point: 46°F , 8°C
Humidity: 59%
Barometer: 30.02 inHg , 1016.6 hPa
Clouds: Clear
Visibility: 10 miles , 16 km
2018/10/19 04:55 KNFG 190455Z 05003KT 10SM CLR 16/08 A3002 RMK AO2 SLP165 T01560083
KRIV - Riverside/March, California, USA
Distance from station: N 74mi, 119km
Updated: 10/18/2018 9:58pm
Clear
Clear
 Wind from NW
Wind: NW 6 mph , 9 km/h
Temperature: 59°F , 15°C
Dew Point: 36°F , 2°C
Humidity: 42%
Barometer: 30.06 inHg , 1017.9 hPa
Clouds: Clear
Visibility: 10 miles , 16 km
2018/10/19 04:58 KRIV 190458Z AUTO 31005KT 10SM CLR 15/02 A3006 RMK AO2 SLP171 T01490024 PNO $
 
KTRM - Thermal/Palm Spg, California, USA
Distance from station: NE 75mi, 121km
Updated: 10/18/2018 9:52pm
Clear
Clear
 Wind from NNE
Wind: NNE 5 mph , 7 km/h
Temperature: 66°F , 19°C
Dew Point: 45°F , 7°C
Humidity: 46%
Barometer: 29.99 inHg , 1015.6 hPa
Clouds: Clear
Visibility: 10 miles , 16 km
2018/10/19 04:52 KTRM 190452Z AUTO 02004KT 10SM CLR 19/07 A2999 RMK AO2 SLP156 T01940067
KPSP - Palm Springs, California, USA
Distance from station: NNE 76mi, 122km
Updated: 10/18/2018 9:53pm
Clear
Clear
 Wind from WNW
Wind: WNW 5 mph , 7 km/h
Temperature: 73°F , 23°C
Dew Point: 34°F , 1°C
Humidity: 23%
Barometer: 30.06 inHg , 1017.9 hPa
Clouds: Clear
Visibility: 10 miles , 16 km
2018/10/19 04:53 KPSP 190453Z 29004KT 10SM CLR 23/01 A3006 RMK AO2 SLP175 T02330006
 
KSNA - Costa Mesa, California, USA
Distance from station: NW 76mi, 123km
Updated: 10/18/2018 9:53pm
Clear
Clear
 Wind from calm
Wind: Calm
Temperature: 72°F , 22°C
Dew Point: 43°F , 6°C
Humidity: 36%
Barometer: 30.01 inHg , 1016.3 hPa
Clouds: Clear
Visibility: 10 miles , 16 km
2018/10/19 04:53 KSNA 190453Z 00000KT 10SM CLR 22/06 A3001 RMK AO2 SLP160 T02170056
KNJK - El Centro Naf, California, USA
Distance from station: E 79mi, 127km
Updated: 10/18/2018 9:56pm
Clear
Clear
 Wind from W
Wind: W 8 mph , 13 km/h
Temperature: 66°F , 19°C
Dew Point: 28°F , -2°C
Humidity: 24%
Barometer: 30.02 inHg , 1016.6 hPa
Clouds: Clear
Visibility: 10 miles , 16 km
2018/10/19 04:56 KNJK 190456Z 26007KT 10SM CLR 19/M02 A3002 RMK AO2 SLP180 T01891017 $
 
KAJO - Corona Muni, California, USA
Distance from station: NNW 82mi, 132km
Updated: 10/18/2018 9:56pm
Clear
Clear
 Wind from calm
Wind: Calm
Temperature: 59°F , 15°C
Dew Point: 41°F , 5°C
Humidity: 51%
Barometer: 30.04 inHg , 1017.3 hPa
Clouds: Clear
Visibility: 10 miles , 16 km
2018/10/19 04:56 KAJO 190456Z AUTO 00000KT 10SM CLR 15/05 A3004 RMK AO2 SLP181 T01500050 $